sensor_id;sensor_type;location;lat;lon;timestamp;pressure;altitude;pressure_sealevel;temperature;humidity
11223;BME280;5668;52.012;8.724;2022-08-01T00:02:16;100050.56;;;22.59;93.03
11223;BME280;5668;52.012;8.724;2022-08-01T00:04:43;100053.22;;;22.59;92.87
11223;BME280;5668;52.012;8.724;2022-08-01T00:07:10;100054.41;;;22.56;92.80
11223;BME280;5668;52.012;8.724;2022-08-01T00:09:37;100051.16;;;22.54;93.06
11223;BME280;5668;52.012;8.724;2022-08-01T00:12:05;100051.75;;;22.56;92.67
11223;BME280;5668;52.012;8.724;2022-08-01T00:14:34;100055.44;;;22.55;93.14
11223;BME280;5668;52.012;8.724;2022-08-01T00:17:01;100053.81;;;22.54;93.06
11223;BME280;5668;52.012;8.724;2022-08-01T00:19:28;100055.44;;;22.55;92.84
11223;BME280;5668;52.012;8.724;2022-08-01T00:21:56;100057.47;;;22.53;93.30
11223;BME280;5668;52.012;8.724;2022-08-01T00:24:23;100065.59;;;22.52;93.35
11223;BME280;5668;52.012;8.724;2022-08-01T00:26:50;100058.66;;;22.51;93.29
11223;BME280;5668;52.012;8.724;2022-08-01T00:29:17;100055.00;;;22.52;92.81
11223;BME280;5668;52.012;8.724;2022-08-01T00:31:46;100057.66;;;22.52;93.23
11223;BME280;5668;52.012;8.724;2022-08-01T00:34:13;100054.53;;;22.48;93.45
11223;BME280;5668;52.012;8.724;2022-08-01T00:36:40;100056.19;;;22.49;93.22
11223;BME280;5668;52.012;8.724;2022-08-01T00:39:07;100064.34;;;22.48;93.40
11223;BME280;5668;52.012;8.724;2022-08-01T00:41:35;100056.59;;;22.46;93.19
11223;BME280;5668;52.012;8.724;2022-08-01T00:44:04;100056.59;;;22.46;92.78
11223;BME280;5668;52.012;8.724;2022-08-01T00:46:32;100055.94;;;22.44;92.99
11223;BME280;5668;52.012;8.724;2022-08-01T00:49:01;100054.50;;;22.42;93.04
11223;BME280;5668;52.012;8.724;2022-08-01T00:51:28;100056.06;;;22.36;93.21
11223;BME280;5668;52.012;8.724;2022-08-01T00:53:56;100059.38;;;22.38;93.30
11223;BME280;5668;52.012;8.724;2022-08-01T00:56:25;100056.91;;;22.36;93.12
11223;BME280;5668;52.012;8.724;2022-08-01T00:58:54;100056.25;;;22.34;92.80
11223;BME280;5668;52.012;8.724;2022-08-01T01:01:21;100063.38;;;22.34;92.74
11223;BME280;5668;52.012;8.724;2022-08-01T01:03:49;100058.22;;;22.26;93.17
11223;BME280;5668;52.012;8.724;2022-08-01T01:06:28;100064.53;;;22.25;93.36
11223;BME280;5668;52.012;8.724;2022-08-01T01:09:10;100058.78;;;22.21;93.28
11223;BME280;5668;52.012;8.724;2022-08-01T01:11:45;100072.84;;;22.22;92.89
11223;BME280;5668;52.012;8.724;2022-08-01T01:14:23;100066.47;;;22.16;93.48
11223;BME280;5668;52.012;8.724;2022-08-01T01:16:54;100059.38;;;22.17;93.80
11223;BME280;5668;52.012;8.724;2022-08-01T01:19:26;100065.25;;;22.19;93.62
11223;BME280;5668;52.012;8.724;2022-08-01T01:22:17;100062.44;;;22.20;93.40
11223;BME280;5668;52.012;8.724;2022-08-01T01:24:57;100062.44;;;22.20;93.60
11223;BME280;5668;52.012;8.724;2022-08-01T01:27:36;100064.91;;;22.22;93.14
11223;BME280;5668;52.012;8.724;2022-08-01T01:30:07;100065.72;;;22.22;93.36
11223;BME280;5668;52.012;8.724;2022-08-01T01:32:38;100063.72;;;22.24;93.18
11223;BME280;5668;52.012;8.724;2022-08-01T01:35:09;100068.78;;;22.26;93.13
11223;BME280;5668;52.012;8.724;2022-08-01T01:37:39;100067.38;;;22.23;93.11
11223;BME280;5668;52.012;8.724;2022-08-01T01:40:11;100062.25;;;22.22;92.72
11223;BME280;5668;52.012;8.724;2022-08-01T01:42:42;100064.44;;;22.18;93.22
11223;BME280;5668;52.012;8.724;2022-08-01T01:45:12;100066.28;;;22.18;93.22
11223;BME280;5668;52.012;8.724;2022-08-01T01:47:41;100070.13;;;22.15;93.56
11223;BME280;5668;52.012;8.724;2022-08-01T01:50:12;100064.84;;;22.15;93.58
11223;BME280;5668;52.012;8.724;2022-08-01T01:52:41;100061.56;;;22.13;93.74
11223;BME280;5668;52.012;8.724;2022-08-01T01:55:09;100068.66;;;22.13;93.54
11223;BME280;5668;52.012;8.724;2022-08-01T01:57:38;100068.84;;;22.11;93.76
11223;BME280;5668;52.012;8.724;2022-08-01T02:00:07;100073.06;;;22.06;94.13
11223;BME280;5668;52.012;8.724;2022-08-01T02:02:36;100075.28;;;22.02;94.20
11223;BME280;5668;52.012;8.724;2022-08-01T02:05:05;100082.41;;;22.02;94.50
11223;BME280;5668;52.012;8.724;2022-08-01T02:07:33;100077.13;;;22.02;94.52
11223;BME280;5668;52.012;8.724;2022-08-01T02:10:03;100080.78;;;22.00;94.80
11223;BME280;5668;52.012;8.724;2022-08-01T02:12:34;100078.13;;;22.00;94.14
11223;BME280;5668;52.012;8.724;2022-08-01T02:15:03;100078.13;;;22.00;94.45
11223;BME280;5668;52.012;8.724;2022-08-01T02:17:31;100080.31;;;21.97;94.65
11223;BME280;5668;52.012;8.724;2022-08-01T02:20:00;100082.50;;;21.93;94.88
11223;BME280;5668;52.012;8.724;2022-08-01T02:22:32;100080.03;;;21.92;94.90
11223;BME280;5668;52.012;8.724;2022-08-01T02:25:03;100091.44;;;21.92;94.33
11223;BME280;5668;52.012;8.724;2022-08-01T02:27:37;100090.78;;;21.90;94.31
11223;BME280;5668;52.012;8.724;2022-08-01T02:30:08;100085.31;;;21.92;94.34
11223;BME280;5668;52.012;8.724;2022-08-01T02:32:39;100088.97;;;21.91;94.08
11223;BME280;5668;52.012;8.724;2022-08-01T02:35:13;100076.91;;;21.88;94.01
11223;BME280;5668;52.012;8.724;2022-08-01T02:37:42;100081.94;;;21.83;94.08
11223;BME280;5668;52.012;8.724;2022-08-01T02:40:12;100082.78;;;21.84;94.15
11223;BME280;5668;52.012;8.724;2022-08-01T02:42:42;100083.59;;;21.84;94.04
11223;BME280;5668;52.012;8.724;2022-08-01T02:45:12;100090.06;;;21.82;93.88
11223;BME280;5668;52.012;8.724;2022-08-01T02:47:40;100090.88;;;21.82;94.06
11223;BME280;5668;52.012;8.724;2022-08-01T02:50:14;100086.00;;;21.79;93.63
11223;BME280;5668;52.012;8.724;2022-08-01T02:52:45;100094.94;;;21.78;93.64
11223;BME280;5668;52.012;8.724;2022-08-01T02:55:13;100092.28;;;21.78;93.56
11223;BME280;5668;52.012;8.724;2022-08-01T02:57:42;100092.81;;;21.74;93.91
11223;BME280;5668;52.012;8.724;2022-08-01T03:02:48;100092.00;;;21.73;94.06
11223;BME280;5668;52.012;8.724;2022-08-01T03:05:18;100089.09;;;21.68;94.34
11223;BME280;5668;52.012;8.724;2022-08-01T03:07:46;100091.09;;;21.66;94.68
11223;BME280;5668;52.012;8.724;2022-08-01T03:10:15;100095.56;;;21.66;94.77
11223;BME280;5668;52.012;8.724;2022-08-01T03:12:44;100089.47;;;21.65;95.08
11223;BME280;5668;52.012;8.724;2022-08-01T03:15:13;100093.56;;;21.68;94.63
11223;BME280;5668;52.012;8.724;2022-08-01T03:17:43;100093.38;;;21.69;94.32
11223;BME280;5668;52.012;8.724;2022-08-01T03:20:14;100098.66;;;21.69;94.09
11223;BME280;5668;52.012;8.724;2022-08-01T03:22:44;100102.13;;;21.70;94.13
11223;BME280;5668;52.012;8.724;2022-08-01T03:25:13;100101.31;;;21.69;93.81
11223;BME280;5668;52.012;8.724;2022-08-01T03:27:43;100097.66;;;21.70;93.79
11223;BME280;5668;52.012;8.724;2022-08-01T03:30:13;100101.31;;;21.69;94.10
11223;BME280;5668;52.012;8.724;2022-08-01T03:32:41;100107.44;;;21.70;93.81
11223;BME280;5668;52.012;8.724;2022-08-01T03:35:09;100099.31;;;21.71;94.27
11223;BME280;5668;52.012;8.724;2022-08-01T03:37:40;100101.97;;;21.71;94.26
11223;BME280;5668;52.012;8.724;2022-08-01T03:40:16;100102.78;;;21.72;93.97
11223;BME280;5668;52.012;8.724;2022-08-01T03:42:48;100100.97;;;21.72;93.77
11223;BME280;5668;52.012;8.724;2022-08-01T03:45:22;100107.88;;;21.73;93.87
11223;BME280;5668;52.012;8.724;2022-08-01T03:47:54;100106.25;;;21.72;94.06
11223;BME280;5668;52.012;8.724;2022-08-01T03:50:23;100105.22;;;21.73;93.95
11223;BME280;5668;52.012;8.724;2022-08-01T03:52:54;100112.16;;;21.74;93.79
11223;BME280;5668;52.012;8.724;2022-08-01T03:55:26;100113.97;;;21.74;93.50
11223;BME280;5668;52.012;8.724;2022-08-01T03:57:53;100118.09;;;21.76;93.41
11223;BME280;5668;52.012;8.724;2022-08-01T04:00:21;100115.44;;;21.76;93.60
11223;BME280;5668;52.012;8.724;2022-08-01T04:02:49;100113.63;;;21.77;93.52
11223;BME280;5668;52.012;8.724;2022-08-01T04:05:17;100116.09;;;21.78;93.10
11223;BME280;5668;52.012;8.724;2022-08-01T04:07:47;100122.38;;;21.77;93.08
11223;BME280;5668;52.012;8.724;2022-08-01T04:10:16;100119.75;;;21.77;93.27
11223;BME280;5668;52.012;8.724;2022-08-01T04:12:45;100119.75;;;21.77;92.94
11223;BME280;5668;52.012;8.724;2022-08-01T04:15:13;100125.84;;;21.78;93.18
11223;BME280;5668;52.012;8.724;2022-08-01T04:17:40;100118.09;;;21.76;93.03
11223;BME280;5668;52.012;8.724;2022-08-01T04:20:09;100128.31;;;21.79;92.60
11223;BME280;5668;52.012;8.724;2022-08-01T04:22:38;100126.69;;;21.78;92.67
11223;BME280;5668;52.012;8.724;2022-08-01T04:25:11;100128.31;;;21.79;92.43
11223;BME280;5668;52.012;8.724;2022-08-01T04:27:42;100121.38;;;21.78;92.50
11223;BME280;5668;52.012;8.724;2022-08-01T04:30:14;100122.38;;;21.77;92.55
11223;BME280;5668;52.012;8.724;2022-08-01T04:32:43;100127.84;;;21.76;92.79
11223;BME280;5668;52.012;8.724;2022-08-01T04:35:13;100137.44;;;21.77;92.42
11223;BME280;5668;52.012;8.724;2022-08-01T04:37:45;100138.44;;;21.76;92.46
11223;BME280;5668;52.012;8.724;2022-08-01T04:40:15;100147.84;;;21.78;92.29
11223;BME280;5668;52.012;8.724;2022-08-01T04:42:43;100139.09;;;21.78;92.17
11223;BME280;5668;52.012;8.724;2022-08-01T04:45:13;100148.84;;;21.77;92.48
11223;BME280;5668;52.012;8.724;2022-08-01T04:47:41;100155.13;;;21.76;92.60
11223;BME280;5668;52.012;8.724;2022-08-01T04:50:10;100155.13;;;21.76;92.35
11223;BME280;5668;52.012;8.724;2022-08-01T04:52:39;100149.50;;;21.79;92.49
11223;BME280;5668;52.012;8.724;2022-08-01T04:55:08;100155.78;;;21.78;92.52
11223;BME280;5668;52.012;8.724;2022-08-01T04:57:39;100155.41;;;21.81;92.51
11223;BME280;5668;52.012;8.724;2022-08-01T05:00:08;100154.41;;;21.82;92.14
11223;BME280;5668;52.012;8.724;2022-08-01T05:02:38;100165.81;;;21.83;92.19
11223;BME280;5668;52.012;8.724;2022-08-01T05:05:06;100168.28;;;21.84;92.04
11223;BME280;5668;52.012;8.724;2022-08-01T05:07:33;100159.69;;;21.82;92.43
11223;BME280;5668;52.012;8.724;2022-08-01T05:10:03;100163.72;;;21.78;92.69
11223;BME280;5668;52.012;8.724;2022-08-01T05:12:31;100163.34;;;21.81;92.57
11223;BME280;5668;52.012;8.724;2022-08-01T05:14:58;100161.69;;;21.80;92.76
11223;BME280;5668;52.012;8.724;2022-08-01T05:17:26;100160.91;;;21.80;93.07
11223;BME280;5668;52.012;8.724;2022-08-01T05:19:54;100161.69;;;21.80;92.89
11223;BME280;5668;52.012;8.724;2022-08-01T05:22:21;100164.34;;;21.80;93.21
11223;BME280;5668;52.012;8.724;2022-08-01T05:24:51;100162.72;;;21.79;93.37
11223;BME280;5668;52.012;8.724;2022-08-01T05:27:19;100168.00;;;21.79;93.49
11223;BME280;5668;52.012;8.724;2022-08-01T05:29:46;100172.66;;;21.77;93.74
11223;BME280;5668;52.012;8.724;2022-08-01T05:32:14;100174.31;;;21.78;93.68
11223;BME280;5668;52.012;8.724;2022-08-01T05:34:41;100173.66;;;21.76;93.88
11223;BME280;5668;52.012;8.724;2022-08-01T05:37:09;100177.31;;;21.75;94.24
11223;BME280;5668;52.012;8.724;2022-08-01T05:39:37;100171.84;;;21.77;94.07
11223;BME280;5668;52.012;8.724;2022-08-01T05:42:04;100172.47;;;21.79;94.14
11223;BME280;5668;52.012;8.724;2022-08-01T05:44:31;100173.09;;;21.81;94.20
11223;BME280;5668;52.012;8.724;2022-08-01T05:46:59;100171.91;;;21.83;94.42
11223;BME280;5668;52.012;8.724;2022-08-01T05:49:26;100182.50;;;21.83;94.30
11223;BME280;5668;52.012;8.724;2022-08-01T05:51:53;100179.84;;;21.83;94.18
11223;BME280;5668;52.012;8.724;2022-08-01T05:54:21;100184.50;;;21.81;94.45
11223;BME280;5668;52.012;8.724;2022-08-01T05:56:49;100181.84;;;21.81;94.47
11223;BME280;5668;52.012;8.724;2022-08-01T05:59:16;100186.16;;;21.82;94.68
11223;BME280;5668;52.012;8.724;2022-08-01T06:01:43;100182.84;;;21.80;94.17
11223;BME280;5668;52.012;8.724;2022-08-01T06:04:10;100192.66;;;21.80;94.13
11223;BME280;5668;52.012;8.724;2022-08-01T06:06:38;100190.19;;;21.78;94.27
11223;BME280;5668;52.012;8.724;2022-08-01T06:09:05;100196.91;;;21.81;94.35
11223;BME280;5668;52.012;8.724;2022-08-01T06:11:33;100189.78;;;21.81;94.30
11223;BME280;5668;52.012;8.724;2022-08-01T06:14:01;100200.38;;;21.81;94.67
11223;BME280;5668;52.012;8.724;2022-08-01T06:16:28;100200.38;;;21.81;94.93
11223;BME280;5668;52.012;8.724;2022-08-01T06:18:55;100204.84;;;21.81;94.77
11223;BME280;5668;52.012;8.724;2022-08-01T06:21:23;100205.31;;;21.84;94.65
11223;BME280;5668;52.012;8.724;2022-08-01T06:23:50;100207.78;;;21.86;94.41
11223;BME280;5668;52.012;8.724;2022-08-01T06:26:18;100208.97;;;21.83;94.30
11223;BME280;5668;52.012;8.724;2022-08-01T06:28:47;100212.25;;;21.85;94.63
11223;BME280;5668;52.012;8.724;2022-08-01T06:31:14;100211.44;;;21.85;94.30
11223;BME280;5668;52.012;8.724;2022-08-01T06:33:41;100218.38;;;21.86;94.07
11223;BME280;5668;52.012;8.724;2022-08-01T06:36:08;100219.38;;;21.85;94.45
11223;BME280;5668;52.012;8.724;2022-08-01T06:38:36;100215.25;;;21.82;94.36
11223;BME280;5668;52.012;8.724;2022-08-01T06:41:04;100206.97;;;21.85;94.01
11223;BME280;5668;52.012;8.724;2022-08-01T06:43:31;100211.44;;;21.85;94.19
11223;BME280;5668;52.012;8.724;2022-08-01T06:45:59;100206.78;;;21.87;94.19
11223;BME280;5668;52.012;8.724;2022-08-01T06:48:27;100211.88;;;21.88;94.11
11223;BME280;5668;52.012;8.724;2022-08-01T06:50:54;100216.81;;;21.91;94.24
11223;BME280;5668;52.012;8.724;2022-08-01T06:53:34;100210.53;;;21.92;94.24
11223;BME280;5668;52.012;8.724;2022-08-01T06:56:03;100211.16;;;21.94;93.68
11223;BME280;5668;52.012;8.724;2022-08-01T06:58:30;100217.09;;;21.96;93.20
11223;BME280;5668;52.012;8.724;2022-08-01T07:00:59;100221.56;;;21.96;93.11
11223;BME280;5668;52.012;8.724;2022-08-01T07:03:26;100219.59;;;21.98;92.74
11223;BME280;5668;52.012;8.724;2022-08-01T07:05:53;100220.59;;;21.97;92.86
11223;BME280;5668;52.012;8.724;2022-08-01T07:08:21;100228.66;;;21.95;93.07
11223;BME280;5668;52.012;8.724;2022-08-01T07:10:48;100223.75;;;21.92;92.79
11223;BME280;5668;52.012;8.724;2022-08-01T07:13:16;100220.03;;;21.87;92.33
11223;BME280;5668;52.012;8.724;2022-08-01T07:15:47;100222.19;;;21.83;91.81
11223;BME280;5668;52.012;8.724;2022-08-01T07:18:15;100220.56;;;21.82;91.83
11223;BME280;5668;52.012;8.724;2022-08-01T07:20:43;100225.84;;;21.82;91.52
11223;BME280;5668;52.012;8.724;2022-08-01T07:23:11;100227.22;;;21.78;91.72
11223;BME280;5668;52.012;8.724;2022-08-01T07:25:39;100218.81;;;21.75;91.13
11223;BME280;5668;52.012;8.724;2022-08-01T07:28:06;100220.63;;;21.74;91.45
11223;BME280;5668;52.012;8.724;2022-08-01T07:30:34;100227.56;;;21.75;91.42
11223;BME280;5668;52.012;8.724;2022-08-01T07:33:01;100226.75;;;21.75;90.98
11223;BME280;5668;52.012;8.724;2022-08-01T07:35:30;100225.56;;;21.77;91.11
11223;BME280;5668;52.012;8.724;2022-08-01T07:37:57;100222.94;;;21.77;91.34
11223;BME280;5668;52.012;8.724;2022-08-01T07:40:25;100229.69;;;21.80;91.38
11223;BME280;5668;52.012;8.724;2022-08-01T07:42:52;100245.38;;;21.81;91.30
11223;BME280;5668;52.012;8.724;2022-08-01T07:45:19;100241.72;;;21.82;90.73
11223;BME280;5668;52.012;8.724;2022-08-01T07:47:47;100249.66;;;21.82;90.30
11223;BME280;5668;52.012;8.724;2022-08-01T07:50:16;100252.94;;;21.84;90.11
11223;BME280;5668;52.012;8.724;2022-08-01T07:52:45;100244.19;;;21.84;90.41
11223;BME280;5668;52.012;8.724;2022-08-01T07:55:12;100256.25;;;21.86;90.60
11223;BME280;5668;52.012;8.724;2022-08-01T07:57:40;100257.06;;;21.87;90.19
11223;BME280;5668;52.012;8.724;2022-08-01T08:00:08;100258.69;;;21.88;90.40
11223;BME280;5668;52.012;8.724;2022-08-01T08:02:35;100256.88;;;21.88;91.08
11223;BME280;5668;52.012;8.724;2022-08-01T08:05:03;100256.88;;;21.88;91.49
11223;BME280;5668;52.012;8.724;2022-08-01T08:07:30;100258.50;;;21.89;91.97
11223;BME280;5668;52.012;8.724;2022-08-01T08:09:59;100263.28;;;21.94;92.03
11223;BME280;5668;52.012;8.724;2022-08-01T08:12:26;100261.25;;;21.96;92.70
11223;BME280;5668;52.012;8.724;2022-08-01T08:14:54;100257.47;;;21.98;92.36
11223;BME280;5668;52.012;8.724;2022-08-01T08:17:21;100259.75;;;22.02;92.26
11223;BME280;5668;52.012;8.724;2022-08-01T08:19:48;100264.06;;;22.03;91.91
11223;BME280;5668;52.012;8.724;2022-08-01T08:22:15;100262.66;;;22.07;91.65
11223;BME280;5668;52.012;8.724;2022-08-01T08:24:43;100266.97;;;22.08;91.48
11223;BME280;5668;52.012;8.724;2022-08-01T08:27:11;100263.75;;;22.12;91.53
11223;BME280;5668;52.012;8.724;2022-08-01T08:29:39;100266.22;;;22.14;91.12
11223;BME280;5668;52.012;8.724;2022-08-01T08:32:07;100264.84;;;22.18;91.13
11223;BME280;5668;52.012;8.724;2022-08-01T08:34:34;100271.44;;;22.22;91.35
11223;BME280;5668;52.012;8.724;2022-08-01T08:37:02;100267.41;;;22.26;91.22
11223;BME280;5668;52.012;8.724;2022-08-01T08:39:29;100272.34;;;22.29;90.86
11223;BME280;5668;52.012;8.724;2022-08-01T08:41:58;100267.50;;;22.32;90.57
11223;BME280;5668;52.012;8.724;2022-08-01T08:44:29;100272.25;;;22.37;90.37
11223;BME280;5668;52.012;8.724;2022-08-01T08:46:58;100276.34;;;22.39;89.91
11223;BME280;5668;52.012;8.724;2022-08-01T08:49:28;100279.63;;;22.42;89.13
11223;BME280;5668;52.012;8.724;2022-08-01T08:52:00;100274.16;;;22.43;88.68
11223;BME280;5668;52.012;8.724;2022-08-01T08:54:28;100275.16;;;22.42;88.02
11223;BME280;5668;52.012;8.724;2022-08-01T08:56:56;100276.78;;;22.43;87.37
11223;BME280;5668;52.012;8.724;2022-08-01T08:59:25;100287.56;;;22.42;87.08
11223;BME280;5668;52.012;8.724;2022-08-01T09:01:54;100285.75;;;22.42;86.72
11223;BME280;5668;52.012;8.724;2022-08-01T09:04:21;100282.72;;;22.45;86.40
11223;BME280;5668;52.012;8.724;2022-08-01T09:06:49;100283.16;;;22.49;86.44
11223;BME280;5668;52.012;8.724;2022-08-01T09:09:17;100289.59;;;22.54;86.74
11223;BME280;5668;52.012;8.724;2022-08-01T09:11:45;100297.13;;;22.57;86.62
11223;BME280;5668;52.012;8.724;2022-08-01T09:14:14;100300.78;;;22.56;86.68
11223;BME280;5668;52.012;8.724;2022-08-01T09:17:00;100306.09;;;22.56;85.87
11223;BME280;5668;52.012;8.724;2022-08-01T09:19:35;100299.53;;;22.52;86.63
11223;BME280;5668;52.012;8.724;2022-08-01T09:22:05;100310.94;;;22.53;86.36
11223;BME280;5668;52.012;8.724;2022-08-01T09:24:34;100306.00;;;22.50;85.80
11223;BME280;5668;52.012;8.724;2022-08-01T09:27:14;100312.31;;;22.49;86.06
11223;BME280;5668;52.012;8.724;2022-08-01T09:29:42;100317.81;;;22.47;85.91
11223;BME280;5668;52.012;8.724;2022-08-01T09:32:11;100319.44;;;22.48;85.83
11223;BME280;5668;52.012;8.724;2022-08-01T09:34:39;100319.44;;;22.48;85.55
11223;BME280;5668;52.012;8.724;2022-08-01T09:37:06;100325.56;;;22.49;84.87
11223;BME280;5668;52.012;8.724;2022-08-01T09:39:35;100319.91;;;22.52;84.93
11223;BME280;5668;52.012;8.724;2022-08-01T09:42:20;100327.03;;;22.51;84.42
11223;BME280;5668;52.012;8.724;2022-08-01T09:44:49;100329.69;;;22.51;85.03
11223;BME280;5668;52.012;8.724;2022-08-01T09:47:19;100331.31;;;22.52;84.99
11223;BME280;5668;52.012;8.724;2022-08-01T09:49:54;100322.00;;;22.56;84.24
11223;BME280;5668;52.012;8.724;2022-08-01T09:52:24;100321.63;;;22.59;84.45
11223;BME280;5668;52.012;8.724;2022-08-01T09:54:54;100323.53;;;22.65;84.70
11223;BME280;5668;52.012;8.724;2022-08-01T09:57:22;100323.00;;;22.70;84.83
11223;BME280;5668;52.012;8.724;2022-08-01T09:59:51;100326.75;;;22.75;84.20
11223;BME280;5668;52.012;8.724;2022-08-01T10:02:32;100327.19;;;22.79;83.97
11223;BME280;5668;52.012;8.724;2022-08-01T10:05:00;100326.84;;;22.82;84.34
11223;BME280;5668;52.012;8.724;2022-08-01T10:07:27;100330.56;;;22.88;83.53
11223;BME280;5668;52.012;8.724;2022-08-01T10:09:54;100335.88;;;22.88;83.56
11223;BME280;5668;52.012;8.724;2022-08-01T10:12:23;100330.94;;;22.85;82.80
11223;BME280;5668;52.012;8.724;2022-08-01T10:14:51;100337.88;;;22.86;81.78
11223;BME280;5668;52.012;8.724;2022-08-01T10:17:23;100334.22;;;22.87;81.36
11223;BME280;5668;52.012;8.724;2022-08-01T10:19:53;100329.38;;;22.90;81.15
11223;BME280;5668;52.012;8.724;2022-08-01T10:22:24;100333.09;;;22.96;81.08
11223;BME280;5668;52.012;8.724;2022-08-01T10:24:55;100321.38;;;23.05;81.43
11223;BME280;5668;52.012;8.724;2022-08-01T10:27:23;100329.78;;;23.08;81.68
11223;BME280;5668;52.012;8.724;2022-08-01T10:29:56;100325.56;;;23.14;80.73
11223;BME280;5668;52.012;8.724;2022-08-01T10:32:26;100326.19;;;23.16;80.45
11223;BME280;5668;52.012;8.724;2022-08-01T10:34:55;100324.16;;;23.18;79.63
11223;BME280;5668;52.012;8.724;2022-08-01T10:37:22;100333.78;;;23.19;79.32
11223;BME280;5668;52.012;8.724;2022-08-01T10:39:51;100337.06;;;23.21;78.97
11223;BME280;5668;52.012;8.724;2022-08-01T10:42:18;100335.03;;;23.23;79.43
11223;BME280;5668;52.012;8.724;2022-08-01T10:44:46;100334.22;;;23.23;79.54
11223;BME280;5668;52.012;8.724;2022-08-01T10:47:15;100330.13;;;23.20;79.05
11223;BME280;5668;52.012;8.724;2022-08-01T10:49:48;100331.13;;;23.19;78.02
11223;BME280;5668;52.012;8.724;2022-08-01T10:52:19;100323.53;;;23.16;77.85
11223;BME280;5668;52.012;8.724;2022-08-01T10:54:47;100325.56;;;23.14;78.08
11223;BME280;5668;52.012;8.724;2022-08-01T10:57:14;100329.59;;;23.10;77.56
11223;BME280;5668;52.012;8.724;2022-08-01T10:59:51;100324.47;;;23.08;76.56
11223;BME280;5668;52.012;8.724;2022-08-01T11:02:27;100323.03;;;23.06;76.92
11223;BME280;5668;52.012;8.724;2022-08-01T11:04:57;100328.69;;;23.03;77.62
11223;BME280;5668;52.012;8.724;2022-08-01T11:07:42;100323.78;;;23.00;76.67
11223;BME280;5668;52.012;8.724;2022-08-01T11:10:20;100324.78;;;22.99;75.65
11223;BME280;5668;52.012;8.724;2022-08-01T11:12:49;100329.09;;;23.00;75.47
11223;BME280;5668;52.012;8.724;2022-08-01T11:15:21;100334.19;;;23.01;76.11
11223;BME280;5668;52.012;8.724;2022-08-01T11:17:53;100332.16;;;23.03;76.54
11223;BME280;5668;52.012;8.724;2022-08-01T11:20:23;100324.69;;;23.07;76.55
11223;BME280;5668;52.012;8.724;2022-08-01T11:23:25;100326.31;;;23.08;76.04
11223;BME280;5668;52.012;8.724;2022-08-01T11:26:21;100328.75;;;23.09;76.52
11223;BME280;5668;52.012;8.724;2022-08-01T11:29:16;100336.72;;;23.09;76.94
11223;BME280;5668;52.012;8.724;2022-08-01T11:31:43;100335.72;;;23.10;77.35
11223;BME280;5668;52.012;8.724;2022-08-01T11:34:10;100339.00;;;23.12;77.18
11223;BME280;5668;52.012;8.724;2022-08-01T11:36:38;100339.84;;;23.13;76.92
11223;BME280;5668;52.012;8.724;2022-08-01T11:39:14;100339.00;;;23.12;75.93
11223;BME280;5668;52.012;8.724;2022-08-01T11:41:43;100336.72;;;23.09;76.25
11223;BME280;5668;52.012;8.724;2022-08-01T11:44:12;100336.94;;;23.08;75.94
11223;BME280;5668;52.012;8.724;2022-08-01T11:46:54;100334.06;;;23.09;75.66
11223;BME280;5668;52.012;8.724;2022-08-01T11:49:34;100333.47;;;23.07;75.43
11223;BME280;5668;52.012;8.724;2022-08-01T11:52:12;100337.28;;;23.05;75.30
11223;BME280;5668;52.012;8.724;2022-08-01T11:54:42;100341.41;;;23.07;75.73
11223;BME280;5668;52.012;8.724;2022-08-01T11:57:11;100341.19;;;23.09;75.37
11223;BME280;5668;52.012;8.724;2022-08-01T11:59:40;100343.50;;;23.12;76.45
11223;BME280;5668;52.012;8.724;2022-08-01T12:02:20;100343.50;;;23.12;76.20
11223;BME280;5668;52.012;8.724;2022-08-01T12:04:50;100343.13;;;23.15;75.28
11223;BME280;5668;52.012;8.724;2022-08-01T12:07:18;100340.09;;;23.18;75.55
11223;BME280;5668;52.012;8.724;2022-08-01T12:09:47;100346.84;;;23.21;75.30
11223;BME280;5668;52.012;8.724;2022-08-01T12:12:18;100339.91;;;23.20;74.54
11223;BME280;5668;52.012;8.724;2022-08-01T12:14:53;100341.91;;;23.17;73.81
11223;BME280;5668;52.012;8.724;2022-08-01T12:17:28;100342.31;;;23.14;74.11
11223;BME280;5668;52.012;8.724;2022-08-01T12:19:56;100350.88;;;23.16;74.33
11223;BME280;5668;52.012;8.724;2022-08-01T12:22:24;100358.47;;;23.20;73.72
11223;BME280;5668;52.012;8.724;2022-08-01T12:24:53;100360.28;;;23.19;73.64
11223;BME280;5668;52.012;8.724;2022-08-01T12:27:28;100358.28;;;23.21;72.92
11223;BME280;5668;52.012;8.724;2022-08-01T12:29:55;100364.59;;;23.20;72.70
11223;BME280;5668;52.012;8.724;2022-08-01T12:32:25;100362.38;;;23.24;73.53
11223;BME280;5668;52.012;8.724;2022-08-01T12:34:54;100369.50;;;23.23;73.96
11223;BME280;5668;52.012;8.724;2022-08-01T12:37:22;100364.84;;;23.25;73.35
11223;BME280;5668;52.012;8.724;2022-08-01T12:39:51;100370.59;;;23.29;74.19
11223;BME280;5668;52.012;8.724;2022-08-01T12:42:19;100369.38;;;23.31;73.85
11223;BME280;5668;52.012;8.724;2022-08-01T12:44:50;100373.88;;;23.31;73.87
11223;BME280;5668;52.012;8.724;2022-08-01T12:47:18;100371.44;;;23.29;73.58
11223;BME280;5668;52.012;8.724;2022-08-01T12:49:47;100376.09;;;23.27;73.03
11223;BME280;5668;52.012;8.724;2022-08-01T12:52:15;100376.34;;;23.32;73.06
11223;BME280;5668;52.012;8.724;2022-08-01T12:55:05;100379.63;;;23.34;73.07
11223;BME280;5668;52.012;8.724;2022-08-01T12:57:34;100379.63;;;23.34;72.86
11223;BME280;5668;52.012;8.724;2022-08-01T13:00:17;100389.59;;;23.32;72.55
11223;BME280;5668;52.012;8.724;2022-08-01T13:02:46;100392.06;;;23.34;72.94
11223;BME280;5668;52.012;8.724;2022-08-01T13:05:15;100396.56;;;23.33;72.18
11223;BME280;5668;52.012;8.724;2022-08-01T13:07:45;100393.91;;;23.33;72.42
11223;BME280;5668;52.012;8.724;2022-08-01T13:10:24;100390.59;;;23.31;73.51
11223;BME280;5668;52.012;8.724;2022-08-01T13:12:53;100394.28;;;23.30;75.05
11223;BME280;5668;52.012;8.724;2022-08-01T13:15:24;100397.94;;;23.29;76.00
11223;BME280;5668;52.012;8.724;2022-08-01T13:17:52;100396.47;;;23.27;76.61